createdAt,value
2023-02-02T00:02:02.421Z,7.48
2023-02-02T00:04:34.107Z,7.50
2023-02-02T00:07:01.747Z,7.50
2023-02-02T00:09:30.704Z,7.30
2023-02-02T00:11:58.231Z,6.98
2023-02-02T00:14:25.239Z,6.85
2023-02-02T00:16:54.352Z,6.76
2023-02-02T00:19:24.769Z,6.87
2023-02-02T00:21:51.227Z,6.90
2023-02-02T00:24:18.430Z,7.00
2023-02-02T00:26:53.165Z,7.14
2023-02-02T00:29:22.541Z,7.25
2023-02-02T00:31:49.382Z,7.11
2023-02-02T00:34:16.691Z,7.37
2023-02-02T00:36:44.683Z,7.63
2023-02-02T00:39:15.630Z,7.62
2023-02-02T00:41:42.219Z,7.61
2023-02-02T00:44:27.291Z,7.64
2023-02-02T00:46:53.736Z,7.83
2023-02-02T00:49:20.306Z,8.10
2023-02-02T00:51:46.803Z,8.09
2023-02-02T00:54:14.358Z,8.04
2023-02-02T00:56:41.708Z,7.91
2023-02-02T00:59:08.429Z,7.95
2023-02-02T01:01:35.805Z,8.03
2023-02-02T01:04:02.326Z,8.04
2023-02-02T01:06:29.025Z,8.03
2023-02-02T01:08:55.521Z,8.14
2023-02-02T01:11:22.068Z,8.27
2023-02-02T01:13:48.517Z,8.40
2023-02-02T01:16:15.900Z,8.21
2023-02-02T01:18:42.808Z,8.21
2023-02-02T01:21:11.681Z,8.17
2023-02-02T01:23:39.085Z,8.24
2023-02-02T01:26:08.715Z,8.28
2023-02-02T01:28:35.935Z,8.28
2023-02-02T01:31:09.670Z,8.15
2023-02-02T01:33:36.805Z,8.31
2023-02-02T01:36:08.752Z,8.20
2023-02-02T01:38:35.798Z,8.34
2023-02-02T01:41:04.572Z,8.26
2023-02-02T01:43:43.234Z,8.20
2023-02-02T01:46:18.313Z,8.18
2023-02-02T01:49:11.113Z,8.22
2023-02-02T01:51:51.979Z,8.37
2023-02-02T01:54:28.476Z,8.46
2023-02-02T01:57:00.615Z,8.34
2023-02-02T01:59:29.434Z,8.48
2023-02-02T02:01:56.091Z,8.41
2023-02-02T02:04:24.630Z,8.30
2023-02-02T02:06:53.561Z,8.49
2023-02-02T02:09:20.424Z,8.60
2023-02-02T02:11:46.912Z,8.59
2023-02-02T02:14:33.931Z,8.44
2023-02-02T02:17:28.332Z,8.52
2023-02-02T02:21:04.569Z,8.47
2023-02-02T02:24:34.611Z,8.35
2023-02-02T02:27:25.236Z,8.26
2023-02-02T02:30:22.258Z,8.27
2023-02-02T02:33:05.595Z,8.31
2023-02-02T02:35:48.633Z,8.40
2023-02-02T02:38:35.226Z,8.37
2023-02-02T02:41:07.194Z,8.37
2023-02-02T02:43:40.565Z,8.39
2023-02-02T02:46:09.105Z,8.43
2023-02-02T02:48:35.542Z,8.42
2023-02-02T02:51:39.318Z,8.32
2023-02-02T02:54:06.387Z,8.40
2023-02-02T02:56:41.819Z,8.38
2023-02-02T02:59:26.421Z,8.23
2023-02-02T03:02:24.835Z,8.44
2023-02-02T03:05:05.180Z,8.37
2023-02-02T03:07:57.975Z,8.37
2023-02-02T03:10:29.475Z,8.27
2023-02-02T03:12:57.511Z,8.26
2023-02-02T03:15:24.487Z,8.24
2023-02-02T03:17:53.055Z,8.20
2023-02-02T03:20:20.026Z,8.30
2023-02-02T03:22:46.532Z,8.31
2023-02-02T03:25:13.130Z,8.34
2023-02-02T03:27:39.970Z,8.31
2023-02-02T03:30:12.276Z,8.21
2023-02-02T03:32:39.456Z,8.24
2023-02-02T03:35:06.528Z,8.27
2023-02-02T03:37:33.039Z,8.36
2023-02-02T03:40:00.369Z,8.26
2023-02-02T03:42:26.869Z,8.28
2023-02-02T03:44:53.322Z,8.30
2023-02-02T03:47:19.742Z,8.25
2023-02-02T03:49:46.185Z,8.10
2023-02-02T03:52:12.657Z,8.13
2023-02-02T03:54:39.101Z,8.10
2023-02-02T03:57:05.577Z,8.09
2023-02-02T03:59:32.024Z,8.12
2023-02-02T04:01:58.521Z,8.24
2023-02-02T04:04:25.102Z,8.22
2023-02-02T04:06:51.528Z,8.14
2023-02-02T04:09:18.079Z,8.09
2023-02-02T04:11:44.483Z,8.10
2023-02-02T04:14:11.112Z,8.14
2023-02-02T04:16:37.824Z,8.22
2023-02-02T04:19:04.797Z,8.06
2023-02-02T04:21:31.511Z,8.19
2023-02-02T04:23:58.009Z,8.24
2023-02-02T04:26:26.176Z,8.27
2023-02-02T04:28:53.795Z,8.21
2023-02-02T04:31:20.539Z,8.25
2023-02-02T04:33:47.068Z,8.39
2023-02-02T04:36:13.586Z,8.36
2023-02-02T04:38:40.091Z,8.41
2023-02-02T04:41:08.734Z,8.24
2023-02-02T04:43:36.032Z,8.23
2023-02-02T04:46:03.153Z,8.25
2023-02-02T04:48:30.189Z,8.20
2023-02-02T04:51:06.338Z,8.25
2023-02-02T04:53:33.357Z,8.33
2023-02-02T04:56:06.934Z,8.43
2023-02-02T04:58:33.456Z,8.42
2023-02-02T05:00:59.954Z,8.34
2023-02-02T05:03:26.534Z,8.42
2023-02-02T05:06:02.711Z,8.57
2023-02-02T05:08:29.325Z,8.38
2023-02-02T05:10:55.894Z,8.34
2023-02-02T05:13:22.577Z,8.36
2023-02-02T05:15:49.335Z,8.41
2023-02-02T05:18:15.811Z,8.33
2023-02-02T05:20:42.297Z,8.38
2023-02-02T05:23:08.700Z,8.25
2023-02-02T05:25:35.218Z,8.41
2023-02-02T05:28:01.924Z,8.49
2023-02-02T05:30:28.406Z,8.49
2023-02-02T05:32:54.903Z,8.43
2023-02-02T05:35:21.478Z,8.50
2023-02-02T05:37:47.908Z,8.50
2023-02-02T05:40:14.399Z,8.49
2023-02-02T05:42:40.966Z,8.45
2023-02-02T05:45:07.810Z,8.43
2023-02-02T05:47:35.655Z,8.44
2023-02-02T05:50:02.938Z,8.42
2023-02-02T05:52:34.924Z,8.42
2023-02-02T05:55:01.654Z,8.38
2023-02-02T05:57:28.091Z,8.39
2023-02-02T05:59:54.839Z,8.38
2023-02-02T06:02:21.224Z,8.38
2023-02-02T06:04:47.676Z,8.39
2023-02-02T06:07:14.177Z,8.48
2023-02-02T06:09:40.618Z,8.45
2023-02-02T06:12:07.216Z,8.42
2023-02-02T06:14:33.676Z,8.46
2023-02-02T06:17:00.249Z,8.41
2023-02-02T06:19:26.720Z,8.40
2023-02-02T06:21:53.191Z,8.27
2023-02-02T06:24:19.626Z,8.37
2023-02-02T06:26:46.111Z,8.42
2023-02-02T06:29:13.699Z,8.36
2023-02-02T06:31:40.480Z,8.40
2023-02-02T06:34:07.155Z,8.51
2023-02-02T06:36:33.936Z,8.44
2023-02-02T06:39:00.412Z,8.41
2023-02-02T06:41:26.849Z,8.40
2023-02-02T06:43:53.247Z,8.34
2023-02-02T06:46:19.773Z,8.32
2023-02-02T06:48:46.261Z,8.26
2023-02-02T06:51:12.786Z,8.23
2023-02-02T06:53:39.293Z,8.17
2023-02-02T06:56:07.532Z,8.28
2023-02-02T06:58:34.800Z,8.43
2023-02-02T07:01:05.913Z,8.38
2023-02-02T07:03:32.872Z,8.31
2023-02-02T07:05:59.571Z,8.26
2023-02-02T07:08:26.061Z,8.25
2023-02-02T07:11:14.673Z,8.20
2023-02-02T07:13:39.161Z,8.16
2023-02-02T07:16:06.828Z,8.09
2023-02-02T07:18:33.683Z,8.07
2023-02-02T07:21:00.709Z,8.06
2023-02-02T07:23:28.547Z,8.01
2023-02-02T07:26:06.446Z,8.16
2023-02-02T07:28:33.532Z,8.17
2023-02-02T07:31:00.356Z,8.03
2023-02-02T07:33:27.203Z,7.99
2023-02-02T07:35:53.728Z,8.02
2023-02-02T07:38:20.191Z,8.01
2023-02-02T07:40:46.891Z,8.01
2023-02-02T07:43:13.531Z,7.96
2023-02-02T07:45:40.401Z,7.99
2023-02-02T07:48:07.106Z,7.95
2023-02-02T07:50:33.623Z,8.05
2023-02-02T07:53:00.771Z,8.05
2023-02-02T07:55:27.456Z,8.05
2023-02-02T07:57:55.536Z,7.97
2023-02-02T08:00:22.961Z,8.01
2023-02-02T08:02:49.860Z,7.98
2023-02-02T08:05:17.288Z,7.92
2023-02-02T08:07:44.655Z,7.93
2023-02-02T08:10:11.727Z,8.17
2023-02-02T08:12:38.157Z,8.18
2023-02-02T08:15:05.098Z,8.19
2023-02-02T08:17:31.622Z,8.23
2023-02-02T08:19:58.096Z,8.27
2023-02-02T08:22:24.521Z,8.29
2023-02-02T08:24:51.083Z,8.35
2023-02-02T08:27:17.568Z,8.35
2023-02-02T08:29:44.043Z,8.39
2023-02-02T08:32:10.532Z,8.42
2023-02-02T08:34:37.255Z,8.52
2023-02-02T08:37:04.385Z,8.57
2023-02-02T08:39:31.067Z,8.58
2023-02-02T08:41:58.257Z,8.58
2023-02-02T08:44:26.389Z,8.71
2023-02-02T08:46:55.176Z,8.77
2023-02-02T08:49:21.787Z,8.81
2023-02-02T08:51:48.226Z,8.86
2023-02-02T08:54:14.638Z,8.92
2023-02-02T08:56:41.161Z,8.92
2023-02-02T08:59:07.728Z,8.88
2023-02-02T09:01:35.123Z,9.00
2023-02-02T09:04:07.128Z,9.07
2023-02-02T09:06:36.397Z,9.09
2023-02-02T09:09:04.605Z,9.14
2023-02-02T09:11:31.205Z,9.21
2023-02-02T09:13:59.341Z,9.24
2023-02-02T09:16:27.109Z,9.19
2023-02-02T09:18:54.886Z,9.22
2023-02-02T09:21:21.833Z,9.28
2023-02-02T09:23:50.139Z,9.27
2023-02-02T09:26:22.847Z,9.31
2023-02-02T09:28:52.861Z,9.39
2023-02-02T09:31:19.393Z,9.55
2023-02-02T09:33:46.379Z,9.60
2023-02-02T09:36:15.547Z,9.65
2023-02-02T09:38:42.828Z,9.84
2023-02-02T09:41:27.715Z,9.83
2023-02-02T09:44:09.061Z,9.95
2023-02-02T09:46:38.613Z,10.09
2023-02-02T09:49:12.209Z,10.15
2023-02-02T09:51:44.179Z,10.11
2023-02-02T09:54:27.167Z,10.05
2023-02-02T09:56:58.136Z,10.15
2023-02-02T09:59:30.906Z,10.34
2023-02-02T10:02:03.010Z,10.25
2023-02-02T10:04:36.074Z,10.21
2023-02-02T10:07:19.379Z,10.28
2023-02-02T10:09:47.403Z,10.33
2023-02-02T10:12:47.599Z,10.43
2023-02-02T10:15:39.688Z,10.46
2023-02-02T10:18:42.897Z,10.44
2023-02-02T10:21:40.341Z,10.51
2023-02-02T10:24:17.833Z,10.68
2023-02-02T10:26:51.770Z,10.59
2023-02-02T10:29:48.562Z,10.55
2023-02-02T10:32:23.752Z,10.54
2023-02-02T10:35:10.962Z,10.87
2023-02-02T10:37:45.898Z,11.07
2023-02-02T10:40:21.300Z,10.77
2023-02-02T10:43:29.782Z,10.96
2023-02-02T10:45:57.087Z,10.99
2023-02-02T10:48:34.539Z,10.85
2023-02-02T10:51:10.856Z,11.01
2023-02-02T10:53:38.044Z,10.95
2023-02-02T10:56:12.044Z,10.94
2023-02-02T10:58:50.767Z,11.22
2023-02-02T11:01:18.213Z,11.25
2023-02-02T11:03:44.877Z,11.12
2023-02-02T11:06:32.028Z,11.15
2023-02-02T11:09:03.881Z,11.25
2023-02-02T11:11:39.589Z,11.17
2023-02-02T11:14:09.252Z,11.05
2023-02-02T11:16:43.713Z,11.34
2023-02-02T11:19:19.903Z,11.50
2023-02-02T11:21:56.336Z,11.20
2023-02-02T11:24:29.998Z,11.30
2023-02-02T11:27:18.083Z,11.44
2023-02-02T11:29:51.688Z,11.33
2023-02-02T11:32:33.819Z,11.41
2023-02-02T11:35:15.607Z,11.56
2023-02-02T11:38:07.567Z,11.37
2023-02-02T11:40:43.702Z,11.56
2023-02-02T11:43:49.446Z,11.65
2023-02-02T11:46:32.969Z,11.50
2023-02-02T11:49:08.381Z,11.43
2023-02-02T11:51:35.019Z,11.68
2023-02-02T11:54:27.310Z,11.77
2023-02-02T11:56:56.833Z,11.79
2023-02-02T11:59:43.292Z,11.62
2023-02-02T12:02:31.104Z,11.62
2023-02-02T12:05:33.047Z,11.66
2023-02-02T12:08:00.116Z,11.90
2023-02-02T12:10:36.666Z,11.82
2023-02-02T12:13:34.672Z,11.80
2023-02-02T12:16:08.764Z,11.75
2023-02-02T12:18:45.755Z,11.79
2023-02-02T12:21:51.664Z,11.78
2023-02-02T12:24:26.086Z,11.82
2023-02-02T12:27:05.542Z,12.13
2023-02-02T12:29:38.072Z,12.09
2023-02-02T12:32:19.809Z,12.00
2023-02-02T12:34:52.144Z,11.97
2023-02-02T12:37:30.591Z,12.07
2023-02-02T12:40:38.488Z,12.30
2023-02-02T12:43:38.096Z,12.16
2023-02-02T12:46:16.933Z,12.02
2023-02-02T12:48:54.564Z,12.06
2023-02-02T12:51:54.964Z,12.16
2023-02-02T12:54:57.397Z,12.10
2023-02-02T12:57:50.644Z,12.11
2023-02-02T13:00:39.254Z,12.28
2023-02-02T13:03:26.897Z,12.39
2023-02-02T13:06:22.560Z,12.36
2023-02-02T13:09:02.263Z,12.17
2023-02-02T13:11:52.072Z,12.16
2023-02-02T13:14:30.752Z,12.24
2023-02-02T13:17:05.117Z,12.17
2023-02-02T13:19:35.843Z,12.19
2023-02-02T13:22:05.980Z,12.31
2023-02-02T13:24:38.724Z,12.38
2023-02-02T13:27:10.009Z,12.52
2023-02-02T13:29:48.196Z,12.41
2023-02-02T13:32:32.883Z,12.39
2023-02-02T13:35:02.428Z,12.33
2023-02-02T13:37:47.607Z,12.56
2023-02-02T13:40:28.889Z,12.72
2023-02-02T13:43:13.558Z,12.50
2023-02-02T13:46:19.136Z,12.38
2023-02-02T13:49:13.490Z,12.23
2023-02-02T13:51:58.843Z,12.36
2023-02-02T13:55:10.496Z,12.52
2023-02-02T13:57:52.990Z,12.53
2023-02-02T14:00:21.491Z,12.47
2023-02-02T14:02:55.299Z,12.38
2023-02-02T14:05:38.205Z,12.50
2023-02-02T14:08:06.597Z,12.46
2023-02-02T14:10:42.058Z,12.40
2023-02-02T14:13:35.778Z,12.51
2023-02-02T14:16:03.412Z,12.42
2023-02-02T14:18:48.308Z,12.39
2023-02-02T14:21:36.057Z,12.45
2023-02-02T14:24:27.305Z,12.61
2023-02-02T14:26:59.082Z,12.39
2023-02-02T14:29:31.763Z,12.37
2023-02-02T14:32:07.218Z,12.38
2023-02-02T14:34:43.961Z,12.44
2023-02-02T14:37:28.452Z,12.46
2023-02-02T14:40:00.874Z,12.36
2023-02-02T14:43:16.711Z,12.67
2023-02-02T14:45:45.501Z,12.57
2023-02-02T14:48:17.874Z,12.68
2023-02-02T14:50:44.909Z,12.57
2023-02-02T14:53:17.764Z,12.45
2023-02-02T14:55:55.713Z,12.61
2023-02-02T14:58:35.991Z,12.50
2023-02-02T15:01:12.165Z,12.36
2023-02-02T15:03:55.729Z,12.28
2023-02-02T15:06:26.424Z,12.54
2023-02-02T15:09:22.414Z,12.57
2023-02-02T15:12:09.138Z,12.42
2023-02-02T15:14:35.700Z,12.71
2023-02-02T15:17:21.008Z,12.64
2023-02-02T15:19:56.779Z,12.56
2023-02-02T15:22:34.100Z,12.40
2023-02-02T15:25:12.558Z,12.57
2023-02-02T15:27:51.530Z,12.36
2023-02-02T15:30:23.968Z,12.45
2023-02-02T15:32:52.542Z,12.31
2023-02-02T15:35:30.383Z,12.35
2023-02-02T15:38:04.796Z,12.25
2023-02-02T15:40:32.288Z,12.26
2023-02-02T15:43:02.232Z,12.14
2023-02-02T15:45:33.216Z,12.17
2023-02-02T15:48:01.644Z,12.12
2023-02-02T15:50:28.457Z,12.05
2023-02-02T15:52:55.814Z,12.00
2023-02-02T15:55:31.931Z,11.97
2023-02-02T15:57:58.596Z,11.92
2023-02-02T16:00:31.830Z,11.95
2023-02-02T16:03:12.180Z,11.79
2023-02-02T16:05:52.491Z,11.97
2023-02-02T16:08:27.790Z,11.96
2023-02-02T16:11:17.872Z,11.85
2023-02-02T16:14:06.967Z,11.82
2023-02-02T16:16:39.786Z,11.91
2023-02-02T16:19:09.479Z,11.79
2023-02-02T16:21:42.493Z,11.83
2023-02-02T16:24:15.510Z,11.80
2023-02-02T16:26:44.261Z,11.67
2023-02-02T16:29:17.377Z,11.61
2023-02-02T16:31:47.803Z,11.66
2023-02-02T16:34:19.696Z,11.61
2023-02-02T16:37:05.363Z,11.79
2023-02-02T16:39:31.853Z,11.67
2023-02-02T16:42:09.424Z,11.67
2023-02-02T16:44:43.809Z,11.76
2023-02-02T16:47:34.501Z,11.62
2023-02-02T16:50:10.049Z,11.78
2023-02-02T16:52:50.600Z,11.62
2023-02-02T16:55:19.528Z,11.57
2023-02-02T16:57:49.321Z,11.52
2023-02-02T17:00:21.089Z,11.55
2023-02-02T17:02:50.721Z,11.49
2023-02-02T17:05:24.717Z,11.37
2023-02-02T17:07:58.435Z,11.48
2023-02-02T17:10:43.160Z,11.54
2023-02-02T17:13:32.396Z,11.55
2023-02-02T17:16:00.129Z,11.66
2023-02-02T17:18:26.761Z,11.67
2023-02-02T17:21:03.957Z,11.69
2023-02-02T17:23:32.192Z,11.61
2023-02-02T17:25:59.317Z,11.53
2023-02-02T17:28:26.619Z,11.55
2023-02-02T17:31:00.960Z,11.59
2023-02-02T17:33:28.560Z,11.55
2023-02-02T17:35:56.442Z,11.51
2023-02-02T17:38:24.619Z,11.51
2023-02-02T17:40:51.588Z,11.50
2023-02-02T17:43:18.345Z,11.51
2023-02-02T17:45:44.918Z,11.54
2023-02-02T17:48:12.970Z,11.57
2023-02-02T17:50:41.220Z,11.66
2023-02-02T17:53:16.565Z,11.55
2023-02-02T17:55:44.228Z,11.56
2023-02-02T17:58:13.169Z,11.50
2023-02-02T18:00:40.918Z,11.44
2023-02-02T18:03:21.217Z,11.37
2023-02-02T18:05:48.290Z,11.38
2023-02-02T18:08:15.364Z,11.37
2023-02-02T18:10:43.182Z,11.49
2023-02-02T18:13:15.021Z,11.42
2023-02-02T18:15:42.103Z,11.44
2023-02-02T18:18:09.177Z,11.52
2023-02-02T18:20:36.368Z,11.51
2023-02-02T18:23:02.965Z,11.53
2023-02-02T18:25:29.447Z,11.51
2023-02-02T18:27:57.550Z,11.55
2023-02-02T18:30:24.717Z,11.45
2023-02-02T18:32:51.610Z,11.67
2023-02-02T18:35:18.083Z,11.59
2023-02-02T18:37:44.451Z,11.50
2023-02-02T18:40:11.630Z,11.65
2023-02-02T18:42:38.065Z,11.68
2023-02-02T18:45:05.988Z,11.49
2023-02-02T18:47:32.417Z,11.51
2023-02-02T18:49:58.789Z,11.52
2023-02-02T18:52:25.301Z,11.51
2023-02-02T18:54:51.746Z,11.50
2023-02-02T18:57:18.515Z,11.65
2023-02-02T18:59:45.029Z,11.53
2023-02-02T19:02:15.870Z,11.53
2023-02-02T19:05:05.143Z,11.57
2023-02-02T19:07:51.112Z,11.52
2023-02-02T19:10:18.888Z,11.50
2023-02-02T19:13:18.252Z,11.58
2023-02-02T19:15:47.027Z,11.74
2023-02-02T19:18:15.115Z,11.67
2023-02-02T19:20:42.368Z,11.59
2023-02-02T19:23:14.478Z,11.71
2023-02-02T19:25:42.292Z,11.73
2023-02-02T19:28:25.461Z,11.58
2023-02-02T19:30:53.780Z,11.63
2023-02-02T19:33:21.148Z,11.61
2023-02-02T19:35:52.372Z,11.64
2023-02-02T19:38:20.584Z,11.55
2023-02-02T19:40:47.436Z,11.63
2023-02-02T19:43:13.780Z,11.58
2023-02-02T19:45:40.965Z,11.62
2023-02-02T19:48:16.716Z,11.64
2023-02-02T19:50:43.552Z,11.70
2023-02-02T19:53:26.462Z,11.73
2023-02-02T19:55:52.937Z,11.75
2023-02-02T19:58:23.238Z,11.67
2023-02-02T20:00:50.749Z,11.56
2023-02-02T20:03:27.772Z,11.55
2023-02-02T20:05:56.825Z,11.65
2023-02-02T20:08:38.199Z,11.55
2023-02-02T20:11:35.963Z,11.73
2023-02-02T20:14:28.447Z,11.80
2023-02-02T20:17:02.877Z,11.85
2023-02-02T20:19:41.272Z,11.80
2023-02-02T20:22:29.385Z,11.63
2023-02-02T20:24:57.332Z,11.65
2023-02-02T20:27:27.881Z,11.76
2023-02-02T20:29:58.225Z,11.76
2023-02-02T20:32:26.338Z,11.76
2023-02-02T20:34:55.117Z,11.88
2023-02-02T20:37:31.439Z,11.75
2023-02-02T20:40:01.176Z,11.65
2023-02-02T20:42:28.905Z,11.61
2023-02-02T20:44:56.317Z,11.54
2023-02-02T20:47:22.675Z,11.43
2023-02-02T20:49:49.141Z,11.44
2023-02-02T20:52:23.315Z,11.64
2023-02-02T20:54:51.421Z,11.50
2023-02-02T20:57:18.331Z,11.45
2023-02-02T20:59:44.904Z,11.38
2023-02-02T21:02:18.945Z,11.33
2023-02-02T21:04:49.688Z,11.20
2023-02-02T21:07:18.040Z,11.20
2023-02-02T21:09:45.752Z,11.07
2023-02-02T21:12:12.667Z,10.99
2023-02-02T21:14:39.362Z,10.99
2023-02-02T21:17:14.933Z,10.84
2023-02-02T21:19:42.950Z,10.70
2023-02-02T21:22:09.504Z,10.69
2023-02-02T21:24:35.919Z,10.65
2023-02-02T21:27:04.327Z,10.61
2023-02-02T21:29:31.745Z,10.60
2023-02-02T21:32:02.548Z,10.60
2023-02-02T21:34:29.900Z,10.41
2023-02-02T21:36:58.194Z,10.38
2023-02-02T21:39:37.420Z,10.19
2023-02-02T21:42:09.817Z,10.06
2023-02-02T21:44:40.878Z,9.95
2023-02-02T21:47:23.790Z,9.85
2023-02-02T21:49:50.250Z,9.79
2023-02-02T21:52:18.944Z,9.90
2023-02-02T21:54:46.554Z,9.96
2023-02-02T21:57:36.440Z,10.01
2023-02-02T22:00:22.627Z,9.84
2023-02-02T22:02:51.123Z,9.76
2023-02-02T22:05:22.344Z,9.79
2023-02-02T22:07:50.467Z,10.00
2023-02-02T22:10:32.116Z,10.10
2023-02-02T22:12:58.521Z,9.99
2023-02-02T22:15:28.905Z,10.02
2023-02-02T22:17:55.337Z,10.13
2023-02-02T22:20:37.016Z,10.13
2023-02-02T22:23:03.567Z,10.20
2023-02-02T22:25:40.013Z,10.19
2023-02-02T22:28:23.505Z,10.34
2023-02-02T22:30:55.498Z,10.46
2023-02-02T22:33:23.159Z,10.50
2023-02-02T22:35:49.702Z,10.47
2023-02-02T22:38:18.630Z,10.35
2023-02-02T22:40:46.498Z,10.22
2023-02-02T22:43:14.824Z,10.33
2023-02-02T22:45:41.259Z,10.48
2023-02-02T22:48:07.994Z,10.51
2023-02-02T22:50:35.192Z,10.63
2023-02-02T22:53:02.710Z,10.53
2023-02-02T22:55:29.539Z,10.60
2023-02-02T22:57:56.111Z,10.63
2023-02-02T23:00:27.371Z,10.62
2023-02-02T23:02:55.245Z,10.64
2023-02-02T23:05:23.188Z,10.51
2023-02-02T23:07:50.454Z,10.12
2023-02-02T23:10:22.810Z,10.00
2023-02-02T23:12:49.979Z,9.77
2023-02-02T23:15:17.008Z,9.68
2023-02-02T23:17:43.412Z,9.47
2023-02-02T23:20:12.565Z,9.47
2023-02-02T23:22:39.069Z,9.29
2023-02-02T23:25:06.287Z,9.13
2023-02-02T23:27:32.875Z,9.17
2023-02-02T23:29:59.246Z,9.12
2023-02-02T23:32:25.697Z,9.18
2023-02-02T23:34:52.089Z,9.15
2023-02-02T23:37:18.666Z,8.96
2023-02-02T23:39:45.209Z,8.91
2023-02-02T23:42:11.596Z,8.69
2023-02-02T23:44:38.001Z,8.71
2023-02-02T23:47:05.157Z,8.38
2023-02-02T23:49:32.979Z,8.49
2023-02-02T23:52:00.149Z,8.43
2023-02-02T23:54:27.483Z,8.39
2023-02-02T23:56:53.955Z,8.42
2023-02-02T23:59:20.331Z,8.25
